createdAt,value
2023-01-07T00:02:20.117Z,100.00
2023-01-07T00:07:21.655Z,100.00
2023-01-07T00:12:23.190Z,100.00
2023-01-07T00:17:24.771Z,100.00
2023-01-07T00:22:26.307Z,100.00
2023-01-07T00:27:27.831Z,100.00
2023-01-07T00:32:29.532Z,100.00
2023-01-07T00:37:31.142Z,100.00
2023-01-07T00:42:32.729Z,100.00
2023-01-07T00:47:34.283Z,100.00
2023-01-07T00:52:35.781Z,100.00
2023-01-07T00:57:37.541Z,100.00
2023-01-07T01:02:40.341Z,100.00
2023-01-07T01:07:43.451Z,100.00
2023-01-07T01:12:45.730Z,100.00
2023-01-07T01:17:47.346Z,100.00
2023-01-07T01:22:48.965Z,100.00
2023-01-07T01:27:50.548Z,100.00
2023-01-07T01:32:52.069Z,100.00
2023-01-07T01:37:54.599Z,100.00
2023-01-07T01:42:56.427Z,100.00
2023-01-07T01:48:04.721Z,100.00
2023-01-07T01:53:16.281Z,100.00
2023-01-07T01:58:33.177Z,100.00
2023-01-07T02:03:37.801Z,100.00
2023-01-07T02:08:39.485Z,100.00
2023-01-07T02:13:47.258Z,100.00
2023-01-07T02:19:11.072Z,100.00
2023-01-07T02:24:24.728Z,100.00
2023-01-07T02:29:26.217Z,100.00
2023-01-07T02:34:43.222Z,100.00
2023-01-07T02:39:57.506Z,100.00
2023-01-07T02:45:11.373Z,100.00
2023-01-07T02:50:13.713Z,100.00
2023-01-07T02:55:21.467Z,100.00
2023-01-07T03:00:33.461Z,100.00
2023-01-07T03:06:06.587Z,100.00
2023-01-07T03:11:10.028Z,100.00
2023-01-07T03:16:27.348Z,100.00
2023-01-07T03:21:32.994Z,100.00
2023-01-07T03:26:43.052Z,100.00
2023-01-07T03:31:58.990Z,100.00
2023-01-07T03:37:10.776Z,100.00
2023-01-07T03:42:13.871Z,100.00
2023-01-07T03:47:15.580Z,100.00
2023-01-07T03:52:17.259Z,100.00
2023-01-07T03:57:18.823Z,100.00
2023-01-07T04:02:20.562Z,100.00
2023-01-07T04:07:22.904Z,100.00
2023-01-07T04:12:24.751Z,100.00
2023-01-07T04:17:26.734Z,100.00
2023-01-07T04:22:28.384Z,100.00
2023-01-07T04:27:30.115Z,100.00
2023-01-07T04:32:32.004Z,100.00
2023-01-07T04:37:33.689Z,100.00
2023-01-07T04:42:35.974Z,100.00
2023-01-07T04:47:38.462Z,100.00
2023-01-07T04:52:41.233Z,100.00
2023-01-07T04:57:43.686Z,100.00
2023-01-07T05:02:47.138Z,100.00
2023-01-07T05:07:48.847Z,100.00
2023-01-07T05:12:52.375Z,100.00
2023-01-07T05:17:54.224Z,100.00
2023-01-07T05:22:58.473Z,100.00
2023-01-07T05:28:00.395Z,100.00
2023-01-07T05:33:04.549Z,100.00
2023-01-07T05:38:06.252Z,100.00
2023-01-07T05:43:08.403Z,100.00
2023-01-07T05:48:10.263Z,100.00
2023-01-07T05:53:11.768Z,100.00
2023-01-07T05:58:13.451Z,100.00
2023-01-07T06:03:15.021Z,100.00
2023-01-07T06:08:16.841Z,100.00
2023-01-07T06:13:18.415Z,100.00
2023-01-07T06:18:20.144Z,100.00
2023-01-07T06:23:21.845Z,100.00
2023-01-07T06:28:23.508Z,100.00
2023-01-07T06:33:25.098Z,100.00
2023-01-07T06:38:26.610Z,100.00
2023-01-07T06:43:28.643Z,100.00
2023-01-07T06:48:30.324Z,100.00
2023-01-07T06:53:32.094Z,100.00
2023-01-07T06:58:33.615Z,100.00
2023-01-07T07:03:35.223Z,100.00
2023-01-07T07:08:36.893Z,100.00
2023-01-07T07:13:38.382Z,100.00
2023-01-07T07:18:41.270Z,100.00
2023-01-07T07:23:42.928Z,100.00
2023-01-07T07:28:44.720Z,100.00
2023-01-07T07:33:46.315Z,100.00
2023-01-07T07:38:47.853Z,100.00
2023-01-07T07:43:49.633Z,100.00
2023-01-07T07:48:51.544Z,100.00
2023-01-07T07:53:53.201Z,100.00
2023-01-07T07:58:54.771Z,100.00
2023-01-07T08:03:56.434Z,100.00
2023-01-07T08:08:58.015Z,100.00
2023-01-07T08:14:00.134Z,100.00
2023-01-07T08:19:01.778Z,100.00
2023-01-07T08:24:03.749Z,100.00
2023-01-07T08:29:05.339Z,100.00
2023-01-07T08:34:06.917Z,100.00
2023-01-07T08:39:08.431Z,100.00
2023-01-07T08:44:10.078Z,100.00
2023-01-07T08:49:11.743Z,100.00
2023-01-07T08:54:13.398Z,100.00
2023-01-07T08:59:14.993Z,100.00
2023-01-07T09:04:16.842Z,100.00
2023-01-07T09:09:18.471Z,100.00
2023-01-07T09:14:20.141Z,100.00
2023-01-07T09:19:21.981Z,100.00
2023-01-07T09:24:23.482Z,100.00
2023-01-07T09:29:25.120Z,100.00
2023-01-07T09:34:26.628Z,100.00
2023-01-07T09:39:28.196Z,100.00
2023-01-07T09:44:54.327Z,100.00
2023-01-07T09:50:03.213Z,100.00
2023-01-07T09:55:17.605Z,100.00
2023-01-07T10:00:22.616Z,100.00
2023-01-07T10:05:56.408Z,100.00
2023-01-07T10:11:11.212Z,100.00
2023-01-07T10:16:51.114Z,100.00
2023-01-07T10:21:58.771Z,100.00
2023-01-07T10:27:22.880Z,100.00
2023-01-07T10:32:30.554Z,100.00
2023-01-07T10:37:35.183Z,100.00
2023-01-07T10:42:39.945Z,100.00
2023-01-07T10:48:03.875Z,100.00
2023-01-07T10:53:29.090Z,100.00
2023-01-07T10:58:39.327Z,100.00
2023-01-07T11:03:41.155Z,100.00
2023-01-07T11:08:43.196Z,100.00
2023-01-07T11:14:10.852Z,100.00
2023-01-07T11:19:12.534Z,100.00
2023-01-07T11:24:36.057Z,100.00
2023-01-07T11:29:43.625Z,100.00
2023-01-07T11:34:48.246Z,100.00
2023-01-07T11:39:59.360Z,100.00
2023-01-07T11:45:18.359Z,100.00
2023-01-07T11:50:30.073Z,100.00
2023-01-07T11:55:31.652Z,100.00
2023-01-07T12:00:33.313Z,100.00
2023-01-07T12:05:35.198Z,100.00
2023-01-07T12:10:38.818Z,100.00
2023-01-07T12:15:51.913Z,100.00
2023-01-07T12:21:14.546Z,100.00
2023-01-07T12:26:22.751Z,98.60
2023-01-07T12:31:40.752Z,100.00
2023-01-07T12:37:10.154Z,100.00
2023-01-07T12:42:25.997Z,100.00
2023-01-07T12:47:37.166Z,100.00
2023-01-07T12:52:49.380Z,99.08
2023-01-07T12:58:26.266Z,99.19
2023-01-07T13:03:39.249Z,99.75
2023-01-07T13:08:51.424Z,100.00
2023-01-07T13:13:54.514Z,100.00
2023-01-07T13:18:56.068Z,100.00
2023-01-07T13:24:55.465Z,99.26
2023-01-07T13:30:11.143Z,100.00
2023-01-07T13:35:37.698Z,99.87
2023-01-07T13:40:45.288Z,100.00
2023-01-07T13:46:01.997Z,98.23
2023-01-07T13:51:12.992Z,98.89
2023-01-07T13:56:17.442Z,98.40
2023-01-07T14:01:28.070Z,97.78
2023-01-07T14:06:29.631Z,99.93
2023-01-07T14:11:31.124Z,100.00
2023-01-07T14:16:50.235Z,99.12
2023-01-07T14:22:03.846Z,98.13
2023-01-07T14:27:24.154Z,99.14
2023-01-07T14:32:25.637Z,96.62
2023-01-07T14:37:39.601Z,98.07
2023-01-07T14:42:43.855Z,99.13
2023-01-07T14:47:53.457Z,100.00
2023-01-07T14:53:26.908Z,100.00
2023-01-07T14:58:41.800Z,100.00
2023-01-07T15:04:00.770Z,100.00
2023-01-07T15:09:11.880Z,100.00
2023-01-07T15:14:26.466Z,100.00
2023-01-07T15:19:27.970Z,100.00
2023-01-07T15:24:48.055Z,100.00
2023-01-07T15:29:49.475Z,100.00
2023-01-07T15:34:51.243Z,100.00
2023-01-07T15:39:56.511Z,100.00
2023-01-07T15:44:59.959Z,100.00
2023-01-07T15:50:24.877Z,100.00
2023-01-07T15:55:30.367Z,100.00
2023-01-07T16:00:32.176Z,100.00
2023-01-07T16:05:38.101Z,100.00
2023-01-07T16:10:39.611Z,100.00
2023-01-07T16:15:41.428Z,100.00
2023-01-07T16:20:54.481Z,100.00
2023-01-07T16:26:06.698Z,100.00
2023-01-07T16:31:14.623Z,100.00
2023-01-07T16:36:40.430Z,100.00
2023-01-07T16:41:42.516Z,100.00
2023-01-07T16:47:14.108Z,100.00
2023-01-07T16:52:17.841Z,100.00
2023-01-07T16:57:48.740Z,100.00
2023-01-07T17:02:59.273Z,100.00
2023-01-07T17:08:06.986Z,100.00
2023-01-07T17:13:14.241Z,100.00
2023-01-07T17:18:15.703Z,100.00
2023-01-07T17:23:26.236Z,100.00
2023-01-07T17:28:33.602Z,100.00
2023-01-07T17:33:36.599Z,100.00
2023-01-07T17:38:38.172Z,100.00
2023-01-07T17:43:39.656Z,100.00
2023-01-07T17:48:41.268Z,100.00
2023-01-07T17:53:45.564Z,100.00
2023-01-07T17:58:47.387Z,100.00
2023-01-07T18:03:49.278Z,100.00
2023-01-07T18:08:52.186Z,100.00
2023-01-07T18:13:53.651Z,100.00
2023-01-07T18:18:55.835Z,100.00
2023-01-07T18:23:57.395Z,100.00
2023-01-07T18:28:59.040Z,100.00
2023-01-07T18:34:00.548Z,100.00
2023-01-07T18:39:02.090Z,100.00
2023-01-07T18:44:03.670Z,100.00
2023-01-07T18:49:05.238Z,100.00
2023-01-07T18:54:07.014Z,100.00
2023-01-07T18:59:08.502Z,100.00
2023-01-07T19:04:10.108Z,100.00
2023-01-07T19:09:11.678Z,100.00
2023-01-07T19:14:13.251Z,100.00
2023-01-07T19:19:14.751Z,100.00
2023-01-07T19:24:16.415Z,100.00
2023-01-07T19:29:19.264Z,100.00
2023-01-07T19:34:20.841Z,100.00
2023-01-07T19:39:23.817Z,100.00
2023-01-07T19:44:25.513Z,100.00
2023-01-07T19:49:27.057Z,100.00
2023-01-07T19:54:28.542Z,100.00
2023-01-07T19:59:30.087Z,100.00
2023-01-07T20:04:31.592Z,100.00
2023-01-07T20:09:33.112Z,100.00
2023-01-07T20:14:34.633Z,100.00
2023-01-07T20:19:36.269Z,100.00
2023-01-07T20:24:37.853Z,100.00
2023-01-07T20:29:39.417Z,100.00
2023-01-07T20:34:40.971Z,100.00
2023-01-07T20:39:42.494Z,100.00
2023-01-07T20:44:43.981Z,100.00
2023-01-07T20:49:45.508Z,100.00
2023-01-07T20:54:47.485Z,100.00
2023-01-07T20:59:49.015Z,100.00
2023-01-07T21:04:50.566Z,100.00
2023-01-07T21:09:52.219Z,100.00
2023-01-07T21:14:53.917Z,100.00
2023-01-07T21:19:55.485Z,100.00
2023-01-07T21:24:56.978Z,100.00
2023-01-07T21:29:58.474Z,100.00
2023-01-07T21:34:59.970Z,100.00
2023-01-07T21:40:01.522Z,100.00
2023-01-07T21:45:04.154Z,100.00
2023-01-07T21:50:05.960Z,100.00
2023-01-07T21:55:08.581Z,100.00
2023-01-07T22:00:10.783Z,100.00
2023-01-07T22:05:15.284Z,100.00
2023-01-07T22:10:16.883Z,100.00
2023-01-07T22:15:18.439Z,100.00
2023-01-07T22:20:19.951Z,100.00
2023-01-07T22:25:21.449Z,100.00
2023-01-07T22:30:25.769Z,100.00
2023-01-07T22:35:28.892Z,100.00
2023-01-07T22:40:34.361Z,100.00
2023-01-07T22:45:42.108Z,100.00
2023-01-07T22:50:43.707Z,100.00
2023-01-07T22:55:45.271Z,100.00
2023-01-07T23:00:52.545Z,100.00
2023-01-07T23:05:54.124Z,100.00
2023-01-07T23:10:55.650Z,100.00
2023-01-07T23:16:00.930Z,100.00
2023-01-07T23:21:04.119Z,100.00
2023-01-07T23:26:05.815Z,100.00
2023-01-07T23:31:07.510Z,100.00
2023-01-07T23:36:09.674Z,100.00
2023-01-07T23:41:12.218Z,100.00
2023-01-07T23:46:13.787Z,100.00
2023-01-07T23:51:20.324Z,100.00
2023-01-07T23:56:22.058Z,100.00
